Time,TemperatureF,DewpointF,PressureIn,WindDirection,WindDirectionDegrees,WindSpeedMPH,WindSpeedGustMPH,Humidity,HourlyPrecipIn,Conditions,Clouds,dailyrainin,SolarRadiationWatts/m^2,SoftwareType,DateUTC
2013-07-21 00:06:00,73.9,55.7,29.75,NNE,24,5.0,6.0,53,0.00,FEW,,0.00,0.0,WeatherDisplay:10.37,2013-07-20 22:06:00,
2013-07-21 00:16:00,73.9,55.7,29.75,NNE,26,3.0,6.0,53,0.00,FEW,,0.00,0.0,WeatherDisplay:10.37,2013-07-20 22:16:00,
2013-07-21 00:26:00,73.9,55.7,29.75,NNE,30,3.0,5.0,53,0.00,FEW,,0.00,0.0,WeatherDisplay:10.37,2013-07-20 22:26:00,
2013-07-21 00:36:00,73.9,55.7,29.75,NE,38,3.0,6.0,53,0.00,FEW,,0.00,0.0,WeatherDisplay:10.37,2013-07-20 22:36:00,
2013-07-21 00:46:00,73.9,55.7,29.75,NNE,28,3.0,6.0,53,0.00,FEW,,0.00,0.0,WeatherDisplay:10.37,2013-07-20 22:46:00,
2013-07-21 00:56:00,73.9,55.7,29.75,NNE,23,3.0,6.0,53,0.00,FEW,,0.00,0.0,WeatherDisplay:10.37,2013-07-20 22:56:00,
2013-07-21 01:16:00,73.9,55.7,29.72,NNE,26,2.0,4.0,53,0.00,FEW,,0.00,0.0,WeatherDisplay:10.37,2013-07-20 23:16:00,
2013-07-21 01:36:00,73.9,55.7,29.72,NNE,27,3.0,6.0,53,0.00,FEW,,0.00,0.0,WeatherDisplay:10.37,2013-07-20 23:36:00,
2013-07-21 01:46:00,73.9,55.7,29.72,NNE,25,3.0,5.0,53,0.00,FEW,,0.00,0.0,WeatherDisplay:10.37,2013-07-20 23:46:00,
2013-07-21 01:56:00,73.9,55.7,29.75,NNE,18,2.0,6.0,53,0.00,FEW,,0.00,0.0,WeatherDisplay:10.37,2013-07-20 23:56:00,
2013-07-21 02:06:00,73.9,55.7,29.74,NNE,22,5.0,7.0,53,0.00,FEW,,0.00,0.0,WeatherDisplay:10.37,2013-07-21 00:06:00,
2013-07-21 02:16:00,73.9,55.7,29.72,NNE,22,3.0,8.0,53,0.00,FEW,,0.00,0.0,WeatherDisplay:10.37,2013-07-21 00:16:00,
2013-07-21 02:36:00,73.9,55.7,29.72,NNE,16,3.0,7.0,53,0.00,FEW,,0.00,0.0,WeatherDisplay:10.37,2013-07-21 00:36:00,
2013-07-21 02:46:00,73.9,55.7,29.72,NNE,28,3.0,6.0,53,0.00,FEW,,0.00,0.0,WeatherDisplay:10.37,2013-07-21 00:46:00,
2013-07-21 02:56:00,73.9,55.7,29.72,NNE,23,6.0,9.0,53,0.00,FEW,,0.00,0.0,WeatherDisplay:10.37,2013-07-21 00:56:00,
2013-07-21 03:06:00,73.9,55.7,29.72,NNE,32,3.0,6.0,53,0.00,FEW,,0.00,0.0,WeatherDisplay:10.37,2013-07-21 01:06:00,
2013-07-21 03:16:00,73.9,55.7,29.72,NNE,26,3.0,5.0,53,0.00,FEW,,0.00,0.0,WeatherDisplay:10.37,2013-07-21 01:16:00,
2013-07-21 03:26:00,73.9,55.7,29.72,NNE,28,3.0,5.0,53,0.00,FEW,,0.00,0.0,WeatherDisplay:10.37,2013-07-21 01:26:00,
2013-07-21 03:36:00,73.9,55.7,29.72,NNE,32,3.0,5.0,53,0.00,FEW,,0.00,0.0,WeatherDisplay:10.37,2013-07-21 01:36:00,
2013-07-21 03:46:00,73.9,55.7,29.72,NE,38,3.0,5.0,53,0.00,FEW,,0.00,0.0,WeatherDisplay:10.37,2013-07-21 01:46:00,
2013-07-21 03:56:00,73.9,55.7,29.72,NE,38,3.0,5.0,53,0.00,FEW,,0.00,0.0,WeatherDisplay:10.37,2013-07-21 01:56:00,
2013-07-21 04:06:00,73.9,55.7,29.72,NE,36,2.0,4.0,53,0.00,FEW,,0.00,0.0,WeatherDisplay:10.37,2013-07-21 02:06:00,
2013-07-21 04:26:00,73.9,55.7,29.72,ENE,64,1.0,2.0,53,0.00,FEW,,0.00,0.0,WeatherDisplay:10.37,2013-07-21 02:26:00,
2013-07-21 04:36:00,73.9,55.7,29.72,ESE,105,0.0,0.0,53,0.00,FEW,,0.00,0.0,WeatherDisplay:10.37,2013-07-21 02:36:00,
2013-07-21 04:46:00,73.9,55.7,29.72,ESE,115,2.0,3.0,53,0.00,FEW,,0.00,0.0,WeatherDisplay:10.37,2013-07-21 02:46:00,
2013-07-21 04:56:00,73.9,55.7,29.72,East,85,2.0,3.0,53,0.00,FEW,,0.00,0.0,WeatherDisplay:10.37,2013-07-21 02:56:00,
2013-07-21 05:06:00,73.9,55.7,29.72,ENE,70,2.0,3.0,53,0.00,FEW,,0.00,0.0,WeatherDisplay:10.37,2013-07-21 03:06:00,
2013-07-21 05:16:00,73.9,55.7,29.72,ENE,74,1.0,3.0,53,0.00,FEW,,0.00,0.0,WeatherDisplay:10.37,2013-07-21 03:16:00,
2013-07-21 05:26:00,73.9,55.7,29.72,ENE,62,2.0,2.0,53,0.00,FEW,,0.00,0.0,WeatherDisplay:10.37,2013-07-21 03:26:00,
2013-07-21 05:36:00,73.9,55.7,29.72,NE,46,2.0,4.0,53,0.00,FEW,,0.00,0.0,WeatherDisplay:10.37,2013-07-21 03:36:00,
2013-07-21 05:56:00,73.9,55.7,29.72,NE,47,2.0,3.0,53,0.00,FEW,,0.00,0.0,WeatherDisplay:10.37,2013-07-21 03:56:00,
2013-07-21 06:06:00,73.9,55.7,29.72,NE,50,0.0,2.0,53,0.00,FEW,,0.00,0.0,WeatherDisplay:10.37,2013-07-21 04:06:00,
2013-07-21 06:16:00,73.9,55.7,29.72,ENE,71,1.0,3.0,53,0.00,FEW,,0.00,0.0,WeatherDisplay:10.37,2013-07-21 04:16:00,
2013-07-21 06:26:00,73.9,55.7,29.72,NE,50,2.0,3.0,53,0.00,FEW,,0.00,0.0,WeatherDisplay:10.37,2013-07-21 04:26:00,
2013-07-21 06:36:00,73.9,55.7,29.72,NE,39,2.0,3.0,53,0.00,FEW,,0.00,0.0,WeatherDisplay:10.37,2013-07-21 04:36:00,
2013-07-21 06:46:00,73.9,55.7,29.72,NE,45,1.0,2.0,53,0.00,FEW,,0.00,0.0,WeatherDisplay:10.37,2013-07-21 04:46:00,
2013-07-21 06:56:00,73.9,55.7,29.72,NE,45,0.0,1.0,53,0.00,FEW,,0.00,0.0,WeatherDisplay:10.37,2013-07-21 04:56:00,
2013-07-21 07:06:00,73.9,55.7,29.74,NNE,33,1.0,2.0,53,0.00,CLR,,0.00,0.0,WeatherDisplay:10.37,2013-07-21 05:06:00,
2013-07-21 07:16:00,73.9,55.7,29.75,North,352,3.0,4.0,53,0.00,CLR,,0.00,0.0,WeatherDisplay:10.37,2013-07-21 05:16:00,
2013-07-21 07:26:00,73.9,55.7,29.75,NNW,346,1.0,2.0,53,0.00,CLR,,0.00,0.0,WeatherDisplay:10.37,2013-07-21 05:26:00,
2013-07-21 07:36:00,73.9,55.7,29.75,North,360,0.0,1.0,53,0.00,CLR,,0.00,0.0,WeatherDisplay:10.37,2013-07-21 05:36:00,
2013-07-21 07:46:00,73.9,55.7,29.75,NE,43,1.0,2.0,53,0.00,CLR,,0.00,0.0,WeatherDisplay:10.37,2013-07-21 05:46:00,
2013-07-21 07:56:00,73.9,55.7,29.75,SSW,193,1.0,2.0,53,0.00,OVC,,0.00,0.0,WeatherDisplay:10.37,2013-07-21 05:56:00,
2013-07-21 08:06:00,73.9,55.7,29.75,South,191,1.0,2.0,53,0.00,OVC,,0.00,0.0,WeatherDisplay:10.37,2013-07-21 06:06:00,
2013-07-21 08:16:00,73.9,55.7,29.75,SSW,212,2.0,3.0,53,0.00,OVC,,0.00,0.0,WeatherDisplay:10.37,2013-07-21 06:16:00,
2013-07-21 08:26:00,73.9,55.7,29.75,SSW,195,2.0,3.0,53,0.00,OVC,,0.00,0.0,WeatherDisplay:10.37,2013-07-21 06:26:00,
2013-07-21 08:36:00,73.9,55.7,29.75,SW,230,2.0,3.0,53,0.00,OVC,,0.00,0.0,WeatherDisplay:10.37,2013-07-21 06:36:00,
2013-07-21 08:46:00,73.9,55.7,29.75,South,182,2.0,5.0,53,0.00,OVC,,0.00,0.0,WeatherDisplay:10.37,2013-07-21 06:46:00,
2013-07-21 08:56:00,73.9,55.7,29.75,SW,214,2.0,3.0,53,0.00,OVC,,0.00,0.0,WeatherDisplay:10.37,2013-07-21 06:56:00,
2013-07-21 09:06:00,73.9,55.7,29.77,SSW,209,2.0,5.0,53,0.00,OVC,,0.00,0.0,WeatherDisplay:10.37,2013-07-21 07:06:00,
2013-07-21 09:16:00,73.9,55.7,29.78,SW,222,2.0,4.0,53,0.00,OVC,,0.00,0.0,WeatherDisplay:10.37,2013-07-21 07:16:00,
2013-07-21 09:26:00,73.9,55.7,29.78,South,188,2.0,5.0,53,0.00,OVC,,0.00,0.0,WeatherDisplay:10.37,2013-07-21 07:26:00,
2013-07-21 09:36:00,73.9,55.7,29.78,SW,222,3.0,6.0,53,0.00,OVC,,0.00,0.0,WeatherDisplay:10.37,2013-07-21 07:36:00,
2013-07-21 09:46:00,73.9,55.7,29.78,SSW,212,3.0,6.0,53,0.00,OVC,,0.00,0.0,WeatherDisplay:10.37,2013-07-21 07:46:00,
2013-07-21 09:56:00,73.9,55.7,29.78,SW,215,3.0,6.0,53,0.00,OVC,,0.00,0.0,WeatherDisplay:10.37,2013-07-21 07:56:00,
2013-07-21 10:06:00,73.9,55.7,29.78,SW,231,3.0,6.0,53,0.00,OVC,,0.00,0.0,WeatherDisplay:10.37,2013-07-21 08:06:00,
2013-07-21 10:16:00,73.9,55.7,29.78,South,190,3.0,6.0,53,0.00,OVC,,0.00,0.0,WeatherDisplay:10.37,2013-07-21 08:16:00,
2013-07-21 10:26:00,73.9,55.7,29.78,SSW,193,2.0,5.0,53,0.00,OVC,,0.00,0.0,WeatherDisplay:10.37,2013-07-21 08:26:00,
2013-07-21 10:36:00,73.9,55.7,29.78,WNW,289,2.0,5.0,53,0.00,OVC,,0.00,0.0,WeatherDisplay:10.37,2013-07-21 08:36:00,
2013-07-21 10:46:00,73.9,55.7,29.78,WSW,242,5.0,6.0,53,0.00,OVC,,0.00,0.0,WeatherDisplay:10.37,2013-07-21 08:46:00,
2013-07-21 10:56:00,73.9,55.7,29.78,SW,228,2.0,6.0,53,0.00,OVC,,0.00,0.0,WeatherDisplay:10.37,2013-07-21 08:56:00,
2013-07-21 11:06:00,73.9,55.7,29.78,NW,324,2.0,6.0,53,0.00,OVC,,0.00,0.0,WeatherDisplay:10.37,2013-07-21 09:06:00,
2013-07-21 11:16:00,73.9,55.7,29.78,SSW,194,5.0,6.0,53,0.00,OVC,,0.00,0.0,WeatherDisplay:10.37,2013-07-21 09:16:00,
2013-07-21 11:26:00,73.9,55.7,29.78,WSW,247,3.0,6.0,53,0.00,OVC,,0.00,0.0,WeatherDisplay:10.37,2013-07-21 09:26:00,
2013-07-21 11:36:00,73.9,55.7,29.78,WSW,242,5.0,6.0,53,0.00,OVC,,0.00,0.0,WeatherDisplay:10.37,2013-07-21 09:36:00,
2013-07-21 11:46:00,73.9,55.7,29.78,WSW,237,6.0,7.0,53,0.00,OVC,,0.00,0.0,WeatherDisplay:10.37,2013-07-21 09:46:00,
2013-07-21 11:56:00,73.9,55.7,29.78,SSW,198,3.0,7.0,53,0.00,OVC,,0.00,0.0,WeatherDisplay:10.37,2013-07-21 09:56:00,
2013-07-21 12:06:00,73.9,55.7,29.78,SW,230,5.0,9.0,53,0.00,FEW,,0.00,0.0,WeatherDisplay:10.37,2013-07-21 10:06:00,
2013-07-21 12:16:00,73.9,55.7,29.78,SW,228,3.0,6.0,53,0.00,FEW,,0.00,0.0,WeatherDisplay:10.37,2013-07-21 10:16:00,
2013-07-21 12:26:00,73.9,55.7,29.81,SW,222,5.0,6.0,53,0.00,FEW,,0.00,0.0,WeatherDisplay:10.37,2013-07-21 10:26:00,
2013-07-21 12:36:00,73.9,55.7,29.81,SW,220,5.0,6.0,53,0.00,FEW,,0.00,0.0,WeatherDisplay:10.37,2013-07-21 10:36:00,
2013-07-21 12:46:00,73.9,55.7,29.81,SSW,204,3.0,6.0,53,0.00,FEW,,0.00,0.0,WeatherDisplay:10.37,2013-07-21 10:46:00,
2013-07-21 12:56:00,73.9,55.7,29.81,SW,222,5.0,8.0,53,0.00,FEW,,0.00,0.0,WeatherDisplay:10.37,2013-07-21 10:56:00,
2013-07-21 13:06:00,73.9,55.7,29.80,SW,215,3.0,7.0,53,0.00,FEW,,0.00,0.0,WeatherDisplay:10.37,2013-07-21 11:06:00,
2013-07-21 13:16:00,73.9,55.7,29.78,SSW,200,6.0,8.0,53,0.00,FEW,,0.00,0.0,WeatherDisplay:10.37,2013-07-21 11:16:00,
2013-07-21 13:26:00,73.9,55.7,29.81,South,172,6.0,9.0,53,0.00,FEW,,0.00,0.0,WeatherDisplay:10.37,2013-07-21 11:26:00,
2013-07-21 13:36:00,73.9,55.7,29.81,SSW,201,3.0,8.0,53,0.00,FEW,,0.00,0.0,WeatherDisplay:10.37,2013-07-21 11:36:00,
2013-07-21 13:46:00,73.9,55.7,29.81,SE,126,5.0,10.0,53,0.00,FEW,,0.00,0.0,WeatherDisplay:10.37,2013-07-21 11:46:00,
2013-07-21 13:56:00,73.9,55.7,29.81,SSW,200,6.0,10.0,53,0.00,FEW,,0.00,0.0,WeatherDisplay:10.37,2013-07-21 11:56:00,
2013-07-21 14:06:00,73.9,55.7,29.81,SW,233,5.0,10.0,53,0.00,BKN,,0.00,0.0,WeatherDisplay:10.37,2013-07-21 12:06:00,
2013-07-21 14:16:00,73.9,55.7,29.81,SSW,193,6.0,9.0,53,0.00,BKN,,0.00,0.0,WeatherDisplay:10.37,2013-07-21 12:16:00,
2013-07-21 14:26:00,73.9,55.7,29.81,WNW,298,5.0,10.0,53,0.00,BKN,,0.00,0.0,WeatherDisplay:10.37,2013-07-21 12:26:00,
2013-07-21 14:36:00,73.9,55.7,29.81,North,5,14.0,18.0,53,0.00,BKN,,0.00,0.0,WeatherDisplay:10.37,2013-07-21 12:36:00,
2013-07-21 14:46:00,73.9,55.7,29.81,NNE,27,8.0,17.0,53,0.00,BKN,,0.00,0.0,WeatherDisplay:10.37,2013-07-21 12:46:00,
2013-07-21 14:56:00,73.9,55.7,29.78,NNE,29,7.0,14.0,53,0.00,BKN,,0.00,0.0,WeatherDisplay:10.37,2013-07-21 12:56:00,
2013-07-21 15:05:00,73.9,55.7,29.78,NE,35,3.0,8.0,53,0.00,BKN,,0.00,0.0,WeatherDisplay:10.37,2013-07-21 13:05:00,
2013-07-21 15:16:00,73.9,55.7,29.78,NNE,19,2.0,6.0,53,0.00,BKN,,0.00,0.0,WeatherDisplay:10.37,2013-07-21 13:16:00,
2013-07-21 15:26:00,73.9,55.7,29.78,NNW,348,6.0,9.0,53,0.00,BKN,,0.00,0.0,WeatherDisplay:10.37,2013-07-21 13:26:00,
2013-07-21 15:36:00,73.9,55.7,29.78,North,1,3.0,6.0,53,0.00,BKN,,0.00,0.0,WeatherDisplay:10.37,2013-07-21 13:36:00,
2013-07-21 15:46:00,73.9,55.7,29.78,NNE,12,2.0,5.0,53,0.00,BKN,,0.00,0.0,WeatherDisplay:10.37,2013-07-21 13:46:00,
2013-07-21 15:56:00,73.9,55.7,29.81,North,357,6.0,12.0,53,0.00,BKN,,0.00,0.0,WeatherDisplay:10.37,2013-07-21 13:56:00,
2013-07-21 16:06:00,73.9,55.7,29.81,NNW,334,5.0,12.0,53,0.00,SCT,,0.00,0.0,WeatherDisplay:10.37,2013-07-21 14:06:00,
2013-07-21 16:16:00,73.9,55.7,29.81,North,350,9.0,13.0,53,0.00,SCT,,0.00,0.0,WeatherDisplay:10.37,2013-07-21 14:16:00,
2013-07-21 16:26:00,73.9,55.7,29.81,North,8,7.0,13.0,53,0.00,SCT,,0.00,0.0,WeatherDisplay:10.37,2013-07-21 14:26:00,
2013-07-21 16:36:00,73.9,55.7,29.81,NNE,22,7.0,9.0,53,0.00,SCT,,0.00,0.0,WeatherDisplay:10.37,2013-07-21 14:36:00,
2013-07-21 16:46:00,73.9,55.7,29.81,NNE,27,6.0,9.0,53,0.00,SCT,,0.00,0.0,WeatherDisplay:10.37,2013-07-21 14:46:00,
2013-07-21 16:56:00,73.9,55.7,29.81,NNE,30,6.0,9.0,53,0.00,SCT,,0.00,0.0,WeatherDisplay:10.37,2013-07-21 14:56:00,
2013-07-21 17:06:00,73.9,55.7,29.81,NNE,13,7.0,10.0,53,0.00,SCT,,0.00,0.0,WeatherDisplay:10.37,2013-07-21 15:06:00,
2013-07-21 17:16:00,73.9,55.7,29.81,NNE,25,5.0,7.0,53,0.00,SCT,,0.00,0.0,WeatherDisplay:10.37,2013-07-21 15:16:00,
2013-07-21 17:26:00,73.9,55.7,29.81,North,349,8.0,10.0,53,0.00,SCT,,0.00,0.0,WeatherDisplay:10.37,2013-07-21 15:26:00,
2013-07-21 17:36:00,73.9,55.7,29.81,NNW,346,6.0,12.0,53,0.00,SCT,,0.00,0.0,WeatherDisplay:10.37,2013-07-21 15:36:00,
2013-07-21 17:46:00,73.9,55.7,29.81,NNW,347,8.0,11.0,53,0.00,SCT,,0.00,0.0,WeatherDisplay:10.37,2013-07-21 15:46:00,
2013-07-21 17:56:00,73.9,55.7,29.81,North,354,7.0,13.0,53,0.00,SCT,,0.00,0.0,WeatherDisplay:10.37,2013-07-21 15:56:00,
2013-07-21 18:06:00,73.9,55.7,29.80,North,5,5.0,10.0,53,0.00,SCT,,0.00,0.0,WeatherDisplay:10.37,2013-07-21 16:06:00,
2013-07-21 18:16:00,73.9,55.7,29.78,NNE,20,6.0,11.0,53,0.00,SCT,,0.00,0.0,WeatherDisplay:10.37,2013-07-21 16:16:00,
2013-07-21 18:26:00,73.9,55.7,29.81,NNE,22,8.0,13.0,53,0.00,SCT,,0.00,0.0,WeatherDisplay:10.37,2013-07-21 16:26:00,
2013-07-21 18:36:00,73.9,55.7,29.81,NNE,28,6.0,12.0,53,0.00,SCT,,0.00,0.0,WeatherDisplay:10.37,2013-07-21 16:36:00,
2013-07-21 18:46:00,73.9,55.7,29.81,NNE,32,3.0,6.0,53,0.00,SCT,,0.00,0.0,WeatherDisplay:10.37,2013-07-21 16:46:00,
2013-07-21 18:56:00,73.9,55.7,29.81,NNE,28,7.0,10.0,53,0.00,SCT,,0.00,0.0,WeatherDisplay:10.37,2013-07-21 16:56:00,
2013-07-21 19:06:00,73.9,55.7,29.81,ESE,115,5.0,9.0,53,0.00,SCT,,0.00,0.0,WeatherDisplay:10.37,2013-07-21 17:06:00,
2013-07-21 19:16:00,73.9,55.7,29.81,SSW,205,2.0,3.0,53,0.00,SCT,,0.00,0.0,WeatherDisplay:10.37,2013-07-21 17:16:00,
2013-07-21 19:26:00,73.9,55.7,29.81,NNE,25,1.0,7.0,53,0.00,SCT,,0.00,0.0,WeatherDisplay:10.37,2013-07-21 17:26:00,
2013-07-21 19:36:00,73.9,55.7,29.81,NE,46,2.0,6.0,53,0.00,SCT,,0.00,0.0,WeatherDisplay:10.37,2013-07-21 17:36:00,
2013-07-21 19:46:00,73.9,55.7,29.81,NE,45,3.0,8.0,53,0.00,SCT,,0.00,0.0,WeatherDisplay:10.37,2013-07-21 17:46:00,
2013-07-21 19:56:00,73.9,55.7,29.81,NNW,347,2.0,8.0,53,0.00,SCT,,0.00,0.0,WeatherDisplay:10.37,2013-07-21 17:56:00,
2013-07-21 20:05:00,73.9,55.7,29.80,North,6,3.0,5.0,53,0.00,SCT,,0.00,0.0,WeatherDisplay:10.37,2013-07-21 18:05:00,
2013-07-21 20:16:00,73.9,55.7,29.78,NNE,13,5.0,6.0,53,0.00,SCT,,0.00,0.0,WeatherDisplay:10.37,2013-07-21 18:16:00,
2013-07-21 20:26:00,73.9,55.7,29.78,North,4,3.0,7.0,53,0.00,SCT,,0.00,0.0,WeatherDisplay:10.37,2013-07-21 18:26:00,
2013-07-21 20:36:00,73.9,55.7,29.78,North,353,3.0,7.0,53,0.00,SCT,,0.00,0.0,WeatherDisplay:10.37,2013-07-21 18:36:00,
2013-07-21 20:46:00,73.9,55.7,29.78,NNW,346,5.0,6.0,53,0.00,SCT,,0.00,0.0,WeatherDisplay:10.37,2013-07-21 18:46:00,
2013-07-21 20:56:00,73.9,55.7,29.75,North,358,6.0,8.0,53,0.00,SCT,,0.00,0.0,WeatherDisplay:10.37,2013-07-21 18:56:00,
2013-07-21 21:06:00,73.9,55.7,29.75,North,357,5.0,6.0,53,0.00,SCT,,0.00,0.0,WeatherDisplay:10.37,2013-07-21 19:06:00,
2013-07-21 21:16:00,73.9,55.7,29.75,NNE,28,3.0,6.0,53,0.00,SCT,,0.00,0.0,WeatherDisplay:10.37,2013-07-21 19:16:00,
2013-07-21 21:26:00,73.9,55.7,29.75,NNE,20,3.0,6.0,53,0.00,SCT,,0.00,0.0,WeatherDisplay:10.37,2013-07-21 19:26:00,
2013-07-21 21:36:00,73.9,55.7,29.77,NNE,25,3.0,6.0,53,0.00,SCT,,0.00,0.0,WeatherDisplay:10.37,2013-07-21 19:36:00,
2013-07-21 21:46:00,73.9,55.7,29.78,NNE,16,2.0,6.0,53,0.00,SCT,,0.00,0.0,WeatherDisplay:10.37,2013-07-21 19:46:00,
2013-07-21 21:56:00,73.9,55.7,29.75,NNE,23,3.0,5.0,53,0.00,SCT,,0.00,0.0,WeatherDisplay:10.37,2013-07-21 19:56:00,
2013-07-21 22:06:00,73.9,55.7,29.77,NE,38,1.0,2.0,53,0.00,SCT,,0.00,0.0,WeatherDisplay:10.37,2013-07-21 20:06:00,
2013-07-21 22:16:00,73.9,55.7,29.78,East,90,2.0,4.0,53,0.00,SCT,,0.00,0.0,WeatherDisplay:10.37,2013-07-21 20:16:00,
2013-07-21 22:26:00,73.9,55.7,29.78,ENE,64,2.0,3.0,53,0.00,SCT,,0.00,0.0,WeatherDisplay:10.37,2013-07-21 20:26:00,
2013-07-21 22:36:00,73.9,55.7,29.78,NE,47,0.0,0.0,53,0.00,SCT,,0.00,0.0,WeatherDisplay:10.37,2013-07-21 20:36:00,
2013-07-21 22:46:00,73.9,55.7,29.78,NE,45,1.0,2.0,53,0.00,SCT,,0.00,0.0,WeatherDisplay:10.37,2013-07-21 20:46:00,
2013-07-21 22:56:00,73.9,55.7,29.78,NE,45,0.0,2.0,53,0.00,SCT,,0.00,0.0,WeatherDisplay:10.37,2013-07-21 20:56:00,
2013-07-21 23:06:00,73.9,55.7,29.78,West,262,1.0,3.0,53,0.00,SCT,,0.00,0.0,WeatherDisplay:10.37,2013-07-21 21:06:00,
2013-07-21 23:16:00,73.9,55.7,29.78,North,349,5.0,7.0,53,0.00,SCT,,0.00,0.0,WeatherDisplay:10.37,2013-07-21 21:16:00,
2013-07-21 23:26:00,73.9,55.7,29.75,NNE,19,5.0,8.0,53,0.00,SCT,,0.00,0.0,WeatherDisplay:10.37,2013-07-21 21:26:00,
2013-07-21 23:36:00,73.9,55.7,29.75,NE,34,3.0,6.0,53,0.00,SCT,,0.00,0.0,WeatherDisplay:10.37,2013-07-21 21:36:00,
2013-07-21 23:46:00,73.9,55.7,29.75,NNE,21,1.0,3.0,53,0.00,SCT,,0.00,0.0,WeatherDisplay:10.37,2013-07-21 21:46:00,
2013-07-21 23:56:00,73.9,55.7,29.75,East,82,2.0,4.0,53,0.00,SCT,,0.00,0.0,WeatherDisplay:10.37,2013-07-21 21:56:00,